Charlevoix, Michigan
Current Conditions -  °F | °C
As of 11:15 AM on Friday 21 Nov 2014 (Local Time) from KCVX Reporting Station
Overcast Overcast  
Wind Chill: -10°   Ceiling: 3100
Heat Index: -4°   Visibility: 10mi
Dew Point: -10°   Wind: 13mph
Humidity: 64%   Direction: 250°WSW
Pressure: 30.36"   Gusts: 16mph
Location:  45.32°N, 85.26°W
Report Text: KCVX 211615Z AUTO 25011G14KT 10SM OVC031 M04/M10 A3036 RMK AO2 T10411100
Loading
Personal Weather Stations






























Interactive Weather Map New forecast layout! Learn more

10-Day Weather Forecast

Advertisements
Track Severe Weather on mobile